createdAt,value
2023-05-16T00:00:48.908Z,100.00
2023-05-16T00:03:17.943Z,100.00
2023-05-16T00:05:46.729Z,100.00
2023-05-16T00:08:15.248Z,100.00
2023-05-16T00:10:43.788Z,100.00
2023-05-16T00:13:12.202Z,100.00
2023-05-16T00:15:44.304Z,100.00
2023-05-16T00:18:15.712Z,100.00
2023-05-16T00:20:44.168Z,100.00
2023-05-16T00:23:13.027Z,100.00
2023-05-16T00:25:41.657Z,100.00
2023-05-16T00:28:10.130Z,100.00
2023-05-16T00:30:38.574Z,100.00
2023-05-16T00:33:08.667Z,100.00
2023-05-16T00:35:37.174Z,100.00
2023-05-16T00:38:05.725Z,100.00
2023-05-16T00:40:34.486Z,100.00
2023-05-16T00:43:03.497Z,100.00
2023-05-16T00:45:33.239Z,100.00
2023-05-16T00:48:01.802Z,100.00
2023-05-16T00:50:31.659Z,100.00
2023-05-16T00:53:00.766Z,100.00
2023-05-16T00:55:29.929Z,100.00
2023-05-16T00:57:59.652Z,100.00
2023-05-16T01:00:29.713Z,100.00
2023-05-16T01:02:58.623Z,100.00
2023-05-16T01:05:27.603Z,100.00
2023-05-16T01:07:57.763Z,100.00
2023-05-16T01:10:32.396Z,100.00
2023-05-16T01:13:12.803Z,100.00
2023-05-16T01:15:53.824Z,100.00
2023-05-16T01:18:36.118Z,100.00
2023-05-16T01:21:17.369Z,100.00
2023-05-16T01:24:00.594Z,100.00
2023-05-16T01:26:32.679Z,100.00
2023-05-16T01:29:04.571Z,100.00
2023-05-16T01:31:33.036Z,100.00
2023-05-16T01:34:01.787Z,100.00
2023-05-16T01:36:44.576Z,100.00
2023-05-16T01:39:23.761Z,100.00
2023-05-16T01:42:04.935Z,100.00
2023-05-16T01:44:39.056Z,100.00
2023-05-16T01:47:13.862Z,100.00
2023-05-16T01:49:51.318Z,100.00
2023-05-16T01:52:28.981Z,100.00
2023-05-16T01:55:01.365Z,100.00
2023-05-16T01:57:32.115Z,100.00
2023-05-16T02:00:00.633Z,100.00
2023-05-16T02:02:29.750Z,100.00
2023-05-16T02:04:58.301Z,100.00
2023-05-16T02:07:27.958Z,100.00
2023-05-16T02:09:56.488Z,100.00
2023-05-16T02:12:26.019Z,100.00
2023-05-16T02:14:56.919Z,100.00
2023-05-16T02:17:26.568Z,100.00
2023-05-16T02:19:56.015Z,100.00
2023-05-16T02:22:25.486Z,100.00
2023-05-16T02:24:54.557Z,100.00
2023-05-16T02:27:23.384Z,100.00
2023-05-16T02:29:52.322Z,100.00
2023-05-16T02:32:22.829Z,100.00
2023-05-16T02:34:52.993Z,100.00
2023-05-16T02:37:21.512Z,100.00
2023-05-16T02:39:50.417Z,100.00
2023-05-16T02:42:18.890Z,100.00
2023-05-16T02:44:47.404Z,100.00
2023-05-16T02:47:16.427Z,100.00
2023-05-16T02:49:47.342Z,100.00
2023-05-16T02:52:16.292Z,100.00
2023-05-16T02:54:46.869Z,100.00
2023-05-16T02:57:20.493Z,100.00
2023-05-16T02:59:48.919Z,100.00
2023-05-16T03:02:18.094Z,100.00
2023-05-16T03:04:48.015Z,100.00
2023-05-16T03:07:16.506Z,100.00
2023-05-16T03:09:45.453Z,100.00
2023-05-16T03:12:14.851Z,100.00
2023-05-16T03:14:45.040Z,100.00
2023-05-16T03:17:13.451Z,100.00
2023-05-16T03:19:42.892Z,100.00
2023-05-16T03:22:13.730Z,100.00
2023-05-16T03:24:42.249Z,100.00
2023-05-16T03:27:11.068Z,100.00
2023-05-16T03:29:39.994Z,100.00
2023-05-16T03:32:09.791Z,100.00
2023-05-16T03:34:38.847Z,100.00
2023-05-16T03:37:08.356Z,100.00
2023-05-16T03:39:38.668Z,100.00
2023-05-16T03:42:08.663Z,100.00
2023-05-16T03:44:37.112Z,100.00
2023-05-16T03:47:07.074Z,100.00
2023-05-16T03:49:38.089Z,100.00
2023-05-16T03:52:07.241Z,100.00
2023-05-16T03:54:37.843Z,100.00
2023-05-16T03:57:07.414Z,100.00
2023-05-16T03:59:36.285Z,100.00
2023-05-16T04:02:05.844Z,100.00
2023-05-16T04:04:34.212Z,100.00
2023-05-16T04:07:03.038Z,100.00
2023-05-16T04:09:31.532Z,100.00
2023-05-16T04:12:03.003Z,100.00
2023-05-16T04:14:31.940Z,100.00
2023-05-16T04:17:00.548Z,100.00
2023-05-16T04:19:29.137Z,100.00
2023-05-16T04:21:58.035Z,100.00
2023-05-16T04:24:28.917Z,100.00
2023-05-16T04:26:58.252Z,100.00
2023-05-16T04:29:28.541Z,100.00
2023-05-16T04:31:57.665Z,100.00
2023-05-16T04:34:27.962Z,100.00
2023-05-16T04:36:57.346Z,100.00
2023-05-16T04:39:25.753Z,100.00
2023-05-16T04:41:54.709Z,100.00
2023-05-16T04:44:23.164Z,100.00
2023-05-16T04:46:54.909Z,100.00
2023-05-16T04:49:24.175Z,100.00
2023-05-16T04:51:53.509Z,100.00
2023-05-16T04:54:22.523Z,100.00
2023-05-16T04:56:52.027Z,100.00
2023-05-16T04:59:21.303Z,100.00
2023-05-16T05:01:49.840Z,100.00
2023-05-16T05:04:19.811Z,100.00
2023-05-16T05:06:48.263Z,100.00
2023-05-16T05:09:17.890Z,100.00
2023-05-16T05:11:47.340Z,100.00
2023-05-16T05:14:16.320Z,100.00
2023-05-16T05:16:44.648Z,100.00
2023-05-16T05:19:13.699Z,100.00
2023-05-16T05:21:44.077Z,100.00
2023-05-16T05:24:12.534Z,100.00
2023-05-16T05:26:41.161Z,100.00
2023-05-16T05:29:09.783Z,100.00
2023-05-16T05:31:38.860Z,100.00
2023-05-16T05:34:08.489Z,100.00
2023-05-16T05:36:37.043Z,100.00
2023-05-16T05:39:06.989Z,100.00
2023-05-16T05:41:35.838Z,100.00
2023-05-16T05:44:04.321Z,100.00
2023-05-16T05:46:34.004Z,100.00
2023-05-16T05:49:02.911Z,100.00
2023-05-16T05:51:32.235Z,100.00
2023-05-16T05:54:01.331Z,100.00
2023-05-16T05:56:31.266Z,100.00
2023-05-16T05:59:00.812Z,100.00
2023-05-16T06:01:30.050Z,100.00
2023-05-16T06:04:00.170Z,100.00
2023-05-16T06:06:31.314Z,100.00
2023-05-16T06:09:00.588Z,100.00
2023-05-16T06:11:30.543Z,100.00
2023-05-16T06:13:59.052Z,100.00
2023-05-16T06:16:27.972Z,100.00
2023-05-16T06:18:57.526Z,100.00
2023-05-16T06:21:26.012Z,100.00
2023-05-16T06:23:55.149Z,100.00
2023-05-16T06:26:23.711Z,100.00
2023-05-16T06:28:54.073Z,100.00
2023-05-16T06:31:23.660Z,100.00
2023-05-16T06:33:52.165Z,100.00
2023-05-16T06:36:21.125Z,100.00
2023-05-16T06:38:50.136Z,100.00
2023-05-16T06:41:18.611Z,100.00
2023-05-16T06:43:47.163Z,100.00
2023-05-16T06:46:17.254Z,100.00
2023-05-16T06:48:46.007Z,100.00
2023-05-16T06:51:14.568Z,100.00
2023-05-16T06:53:44.106Z,100.00
2023-05-16T06:56:13.018Z,100.00
2023-05-16T06:58:41.602Z,100.00
2023-05-16T07:01:10.177Z,100.00
2023-05-16T07:03:40.630Z,100.00
2023-05-16T07:06:10.086Z,100.00
2023-05-16T07:08:39.173Z,100.00
2023-05-16T07:11:10.216Z,100.00
2023-05-16T07:13:39.290Z,100.00
2023-05-16T07:16:09.206Z,100.00
2023-05-16T07:18:39.208Z,100.00
2023-05-16T07:21:07.924Z,100.00
2023-05-16T07:23:36.575Z,100.00
2023-05-16T07:26:05.563Z,100.00
2023-05-16T07:28:34.063Z,100.00
2023-05-16T07:31:02.549Z,100.00
2023-05-16T07:33:31.148Z,100.00
2023-05-16T07:36:15.352Z,100.00
2023-05-16T07:38:45.237Z,100.00
2023-05-16T07:41:13.961Z,100.00
2023-05-16T07:43:42.570Z,100.00
2023-05-16T07:46:13.430Z,100.00
2023-05-16T07:48:42.466Z,100.00
2023-05-16T07:51:12.315Z,100.00
2023-05-16T07:53:41.332Z,100.00
2023-05-16T07:56:10.213Z,100.00
2023-05-16T07:58:39.498Z,100.00
2023-05-16T08:01:08.275Z,100.00
2023-05-16T08:03:38.527Z,100.00
2023-05-16T08:06:07.670Z,100.00
2023-05-16T08:08:38.095Z,100.00
2023-05-16T08:11:07.008Z,100.00
2023-05-16T08:13:36.221Z,100.00
2023-05-16T08:16:05.032Z,100.00
2023-05-16T08:18:34.799Z,100.00
2023-05-16T08:21:03.359Z,100.00
2023-05-16T08:23:31.814Z,100.00
2023-05-16T08:26:02.149Z,100.00
2023-05-16T08:28:31.132Z,100.00
2023-05-16T08:31:00.171Z,100.00
2023-05-16T08:33:29.057Z,100.00
2023-05-16T08:35:58.222Z,100.00
2023-05-16T08:38:26.724Z,100.00
2023-05-16T08:40:55.354Z,100.00
2023-05-16T08:43:25.505Z,100.00
2023-05-16T08:45:54.432Z,100.00
2023-05-16T08:48:27.498Z,100.00
2023-05-16T08:50:56.369Z,100.00
2023-05-16T08:53:34.025Z,100.00
2023-05-16T08:56:04.910Z,100.00
2023-05-16T08:58:35.388Z,100.00
2023-05-16T09:01:08.948Z,100.00
2023-05-16T09:03:39.642Z,100.00
2023-05-16T09:06:08.710Z,100.00
2023-05-16T09:08:37.241Z,100.00
2023-05-16T09:11:06.135Z,100.00
2023-05-16T09:13:36.900Z,100.00
2023-05-16T09:16:13.593Z,100.00
2023-05-16T09:18:45.797Z,100.00
2023-05-16T09:21:15.891Z,100.00
2023-05-16T09:23:46.555Z,100.00
2023-05-16T09:26:15.793Z,100.00
2023-05-16T09:28:45.722Z,100.00
2023-05-16T09:31:26.789Z,100.00
2023-05-16T09:33:57.306Z,100.00
2023-05-16T09:36:27.203Z,100.00
2023-05-16T09:38:56.104Z,100.00
2023-05-16T09:41:26.037Z,100.00
2023-05-16T09:43:56.836Z,100.00
2023-05-16T09:46:28.812Z,100.00
2023-05-16T09:48:58.173Z,100.00
2023-05-16T09:51:28.745Z,100.00
2023-05-16T09:54:02.307Z,100.00
2023-05-16T09:56:30.801Z,100.00
2023-05-16T09:59:00.733Z,100.00
2023-05-16T10:01:29.326Z,100.00
2023-05-16T10:03:59.103Z,100.00
2023-05-16T10:06:28.045Z,100.00
2023-05-16T10:08:56.986Z,100.00
2023-05-16T10:11:27.304Z,100.00
2023-05-16T10:13:57.106Z,100.00
2023-05-16T10:16:28.241Z,100.00
2023-05-16T10:18:57.763Z,100.00
2023-05-16T10:21:30.288Z,100.00
2023-05-16T10:24:04.836Z,100.00
2023-05-16T10:26:35.848Z,100.00
2023-05-16T10:29:06.167Z,100.00
2023-05-16T10:31:37.974Z,100.00
2023-05-16T10:34:06.713Z,100.00
2023-05-16T10:36:36.414Z,99.69
2023-05-16T10:39:05.678Z,96.40
2023-05-16T10:41:36.814Z,94.84
2023-05-16T10:44:18.106Z,93.49
2023-05-16T10:46:49.246Z,93.54
2023-05-16T10:49:25.924Z,90.91
2023-05-16T10:52:10.620Z,90.06
2023-05-16T10:54:41.852Z,89.21
2023-05-16T10:57:18.363Z,88.25
2023-05-16T10:59:48.952Z,88.32
2023-05-16T11:02:28.980Z,90.88
2023-05-16T11:05:00.196Z,87.73
2023-05-16T11:07:34.449Z,86.76
2023-05-16T11:10:09.646Z,86.31
2023-05-16T11:12:44.613Z,86.02
2023-05-16T11:15:26.693Z,86.37
2023-05-16T11:18:09.385Z,86.21
2023-05-16T11:20:41.014Z,85.93
2023-05-16T11:23:28.116Z,84.43
2023-05-16T11:26:00.682Z,81.18
2023-05-16T11:28:30.788Z,79.99
2023-05-16T11:31:01.047Z,78.53
2023-05-16T11:33:35.685Z,78.21
2023-05-16T11:36:15.861Z,75.27
2023-05-16T11:38:45.688Z,73.46
2023-05-16T11:41:16.589Z,71.92
2023-05-16T11:43:46.772Z,72.81
2023-05-16T11:46:17.574Z,76.22
2023-05-16T11:48:48.590Z,79.17
2023-05-16T11:51:20.933Z,74.37
2023-05-16T11:53:51.089Z,73.08
2023-05-16T11:56:22.265Z,75.95
2023-05-16T11:58:52.423Z,72.40
2023-05-16T12:01:20.927Z,72.72
2023-05-16T12:03:59.448Z,69.79
2023-05-16T12:06:29.418Z,70.50
2023-05-16T12:08:57.965Z,70.37
2023-05-16T12:11:27.332Z,67.69
2023-05-16T12:13:56.012Z,69.24
2023-05-16T12:16:25.966Z,67.08
2023-05-16T12:18:58.454Z,69.21
2023-05-16T12:21:27.151Z,64.86
2023-05-16T12:23:58.316Z,63.06
2023-05-16T12:26:31.366Z,63.59
2023-05-16T12:29:01.044Z,63.45
2023-05-16T12:31:32.465Z,63.72
2023-05-16T12:34:03.008Z,63.65
2023-05-16T12:36:36.882Z,64.17
2023-05-16T12:39:05.932Z,63.15
2023-05-16T12:41:41.540Z,63.50
2023-05-16T12:44:16.820Z,64.41
2023-05-16T12:46:47.100Z,63.71
2023-05-16T12:49:17.613Z,64.36
2023-05-16T12:51:52.445Z,63.17
2023-05-16T12:54:23.107Z,63.16
2023-05-16T12:56:51.803Z,62.01
2023-05-16T12:59:20.892Z,62.63
2023-05-16T13:01:49.967Z,60.89
2023-05-16T13:04:21.667Z,62.33
2023-05-16T13:09:23.468Z,59.78
2023-05-16T13:11:52.527Z,59.54
2023-05-16T13:14:21.041Z,60.13
2023-05-16T13:16:50.503Z,59.52
2023-05-16T13:19:23.192Z,60.27
2023-05-16T13:21:51.893Z,60.91
2023-05-16T13:24:20.923Z,60.10
2023-05-16T13:26:49.385Z,59.54
2023-05-16T13:29:18.500Z,60.05
2023-05-16T13:31:47.231Z,59.10
2023-05-16T13:34:15.781Z,57.59
2023-05-16T13:36:53.916Z,59.71
2023-05-16T13:39:23.727Z,60.07
2023-05-16T13:41:53.425Z,58.61
2023-05-16T13:44:22.709Z,59.11
2023-05-16T13:46:52.099Z,57.14
2023-05-16T13:49:20.931Z,57.74
2023-05-16T13:51:52.075Z,56.95
2023-05-16T13:54:21.909Z,56.23
2023-05-16T13:56:51.249Z,54.16
2023-05-16T13:59:31.887Z,54.62
2023-05-16T14:02:08.904Z,54.15
2023-05-16T14:04:37.493Z,55.66
2023-05-16T14:07:07.934Z,55.80
2023-05-16T14:09:39.405Z,59.74
2023-05-16T14:12:09.150Z,55.41
2023-05-16T14:14:38.016Z,55.60
2023-05-16T14:17:07.567Z,53.64
2023-05-16T14:19:36.475Z,54.01
2023-05-16T14:22:05.182Z,53.44
2023-05-16T14:24:35.487Z,53.79
2023-05-16T14:27:04.081Z,51.96
2023-05-16T14:29:33.060Z,51.81
2023-05-16T14:32:01.690Z,53.39
2023-05-16T14:34:30.306Z,53.67
2023-05-16T14:36:59.413Z,52.50
2023-05-16T14:39:28.977Z,50.77
2023-05-16T14:41:58.922Z,50.34
2023-05-16T14:44:27.318Z,51.00
2023-05-16T14:46:56.450Z,50.95
2023-05-16T14:49:24.929Z,50.66
2023-05-16T14:51:53.924Z,50.54
2023-05-16T14:54:22.427Z,50.23
2023-05-16T14:56:50.867Z,51.06
2023-05-16T14:59:20.758Z,51.58
2023-05-16T15:01:49.553Z,51.74
2023-05-16T15:04:18.860Z,51.66
2023-05-16T15:06:47.288Z,52.59
2023-05-16T15:09:15.946Z,53.63
2023-05-16T15:11:44.411Z,54.00
2023-05-16T15:14:13.054Z,51.61
2023-05-16T15:16:44.147Z,52.50
2023-05-16T15:19:13.253Z,52.63
2023-05-16T15:21:41.818Z,51.49
2023-05-16T15:24:12.313Z,52.25
2023-05-16T15:26:41.060Z,51.68
2023-05-16T15:29:10.951Z,52.59
2023-05-16T15:31:39.511Z,51.90
2023-05-16T15:34:09.440Z,53.03
2023-05-16T15:36:38.426Z,52.68
2023-05-16T15:39:06.866Z,53.23
2023-05-16T15:41:56.833Z,53.20
2023-05-16T15:44:24.409Z,54.28
2023-05-16T15:46:52.916Z,53.62
2023-05-16T15:49:22.822Z,55.05
2023-05-16T15:51:52.724Z,55.03
2023-05-16T15:54:21.638Z,55.77
2023-05-16T15:56:50.237Z,57.00
2023-05-16T15:59:18.680Z,56.88
2023-05-16T16:01:47.386Z,55.52
2023-05-16T16:04:16.616Z,54.75
2023-05-16T16:06:46.864Z,56.51
2023-05-16T16:09:15.674Z,56.73
2023-05-16T16:11:46.469Z,56.39
2023-05-16T16:14:15.282Z,55.93
2023-05-16T16:16:43.992Z,56.76
2023-05-16T16:19:12.608Z,57.23
2023-05-16T16:21:41.960Z,58.29
2023-05-16T16:24:11.872Z,59.47
2023-05-16T16:26:40.921Z,57.84
2023-05-16T16:29:09.873Z,58.76
2023-05-16T16:31:38.379Z,59.19
2023-05-16T16:34:07.004Z,59.31
2023-05-16T16:36:35.486Z,59.79
2023-05-16T16:39:05.848Z,59.73
2023-05-16T16:41:36.356Z,58.72
2023-05-16T16:44:05.022Z,58.34
2023-05-16T16:46:33.463Z,58.41
2023-05-16T16:49:02.048Z,57.67
2023-05-16T16:51:31.201Z,57.90
2023-05-16T16:54:00.092Z,57.54
2023-05-16T16:56:30.101Z,55.20
2023-05-16T16:59:00.951Z,56.12
2023-05-16T17:01:32.716Z,57.18
2023-05-16T17:04:01.804Z,57.58
2023-05-16T17:06:30.919Z,59.09
2023-05-16T17:09:03.142Z,58.61
2023-05-16T17:11:35.908Z,58.04
2023-05-16T17:14:06.325Z,58.25
2023-05-16T17:16:35.191Z,57.12
2023-05-16T17:19:04.606Z,56.75
2023-05-16T17:21:34.687Z,57.37
2023-05-16T17:24:04.401Z,56.12
2023-05-16T17:26:32.976Z,56.75
2023-05-16T17:29:01.773Z,55.34
2023-05-16T17:31:31.999Z,56.57
2023-05-16T17:34:00.440Z,55.32
2023-05-16T17:36:29.048Z,55.76
2023-05-16T17:38:58.679Z,56.62
2023-05-16T17:41:27.352Z,55.29
2023-05-16T17:43:55.835Z,53.48
2023-05-16T17:46:24.335Z,54.47
2023-05-16T17:48:54.551Z,55.21
2023-05-16T17:51:23.452Z,55.27
2023-05-16T17:53:52.602Z,55.82
2023-05-16T17:56:21.132Z,56.09
2023-05-16T17:58:50.268Z,54.40
2023-05-16T18:01:19.540Z,54.71
2023-05-16T18:03:48.811Z,54.72
2023-05-16T18:06:18.718Z,55.98
2023-05-16T18:08:47.338Z,55.23
2023-05-16T18:11:15.838Z,56.68
2023-05-16T18:13:44.731Z,56.92
2023-05-16T18:16:13.129Z,55.56
2023-05-16T18:18:41.759Z,55.84
2023-05-16T18:21:10.382Z,57.68
2023-05-16T18:23:40.302Z,57.29
2023-05-16T18:26:09.302Z,57.73
2023-05-16T18:28:37.933Z,58.97
2023-05-16T18:31:06.937Z,59.61
2023-05-16T18:33:37.787Z,60.34
2023-05-16T18:36:06.765Z,61.24
2023-05-16T18:38:35.381Z,61.19
2023-05-16T18:41:05.285Z,61.85
2023-05-16T18:43:35.365Z,62.19
2023-05-16T18:46:04.859Z,62.87
2023-05-16T18:48:35.952Z,64.23
2023-05-16T18:51:05.230Z,66.52
2023-05-16T18:53:33.807Z,67.69
2023-05-16T18:56:02.235Z,68.84
2023-05-16T18:58:32.516Z,70.74
2023-05-16T19:01:02.001Z,72.14
2023-05-16T19:03:30.555Z,72.16
2023-05-16T19:05:59.321Z,71.67
2023-05-16T19:08:36.761Z,72.34
2023-05-16T19:11:15.628Z,72.55
2023-05-16T19:13:45.695Z,73.41
2023-05-16T19:16:14.630Z,74.76
2023-05-16T19:18:43.416Z,74.90
2023-05-16T19:21:13.572Z,74.94
2023-05-16T19:23:42.497Z,75.23
2023-05-16T19:26:11.134Z,74.85
2023-05-16T19:28:42.112Z,74.05
2023-05-16T19:31:12.954Z,75.21
2023-05-16T19:33:41.531Z,77.18
2023-05-16T19:36:10.090Z,76.50
2023-05-16T19:38:38.682Z,75.99
2023-05-16T19:41:07.151Z,76.57
2023-05-16T19:43:35.618Z,76.76
2023-05-16T19:46:04.057Z,77.51
2023-05-16T19:48:33.968Z,77.82
2023-05-16T19:51:02.530Z,77.10
2023-05-16T19:53:31.094Z,77.60
2023-05-16T19:55:59.654Z,78.90
2023-05-16T19:58:28.631Z,80.00
2023-05-16T20:00:58.459Z,80.21
2023-05-16T20:03:27.317Z,80.59
2023-05-16T20:05:57.837Z,81.81
2023-05-16T20:08:26.380Z,81.18
2023-05-16T20:10:55.967Z,82.21
2023-05-16T20:13:25.709Z,83.01
2023-05-16T20:15:54.187Z,83.44
2023-05-16T20:18:22.799Z,83.99
2023-05-16T20:20:51.375Z,83.36
2023-05-16T20:23:21.590Z,84.11
2023-05-16T20:25:50.181Z,84.95
2023-05-16T20:28:18.676Z,85.00
2023-05-16T20:30:47.218Z,85.49
2023-05-16T20:33:16.099Z,86.43
2023-05-16T20:35:44.638Z,86.60
2023-05-16T20:38:13.088Z,87.17
2023-05-16T20:40:42.928Z,87.70
2023-05-16T20:43:11.948Z,88.59
2023-05-16T20:45:40.522Z,89.17
2023-05-16T20:48:09.077Z,88.61
2023-05-16T20:50:38.989Z,89.19
2023-05-16T20:53:07.454Z,89.73
2023-05-16T20:55:35.953Z,90.85
2023-05-16T20:58:06.243Z,90.81
2023-05-16T21:00:34.805Z,91.35
2023-05-16T21:03:04.690Z,91.42
2023-05-16T21:05:33.967Z,92.22
2023-05-16T21:08:03.018Z,93.00
2023-05-16T21:10:31.764Z,93.88
2023-05-16T21:13:00.782Z,94.05
2023-05-16T21:15:30.836Z,95.13
2023-05-16T21:17:59.486Z,95.33
2023-05-16T21:20:30.260Z,95.91
2023-05-16T21:22:59.186Z,96.94
2023-05-16T21:25:27.953Z,96.89
2023-05-16T21:27:57.289Z,97.91
2023-05-16T21:30:26.085Z,98.01
2023-05-16T21:32:56.506Z,98.83
2023-05-16T21:35:25.301Z,99.06
2023-05-16T21:37:54.179Z,99.45
2023-05-16T21:40:25.149Z,100.00
2023-05-16T21:42:54.079Z,100.00
2023-05-16T21:45:22.850Z,100.00
2023-05-16T21:47:51.588Z,100.00
2023-05-16T21:50:21.752Z,100.00
2023-05-16T21:52:52.971Z,100.00
2023-05-16T21:55:21.977Z,100.00
2023-05-16T21:57:50.585Z,100.00
2023-05-16T22:00:19.772Z,100.00
2023-05-16T22:02:48.694Z,100.00
2023-05-16T22:05:19.232Z,100.00
2023-05-16T22:07:49.291Z,100.00
2023-05-16T22:10:18.734Z,100.00
2023-05-16T22:12:47.235Z,100.00
2023-05-16T22:15:15.748Z,100.00
2023-05-16T22:17:44.345Z,100.00
2023-05-16T22:20:13.587Z,100.00
2023-05-16T22:22:42.147Z,100.00
2023-05-16T22:25:12.756Z,100.00
2023-05-16T22:27:41.261Z,100.00
2023-05-16T22:30:11.114Z,100.00
2023-05-16T22:32:39.635Z,100.00
2023-05-16T22:35:10.204Z,100.00
2023-05-16T22:37:38.661Z,100.00
2023-05-16T22:40:09.287Z,100.00
2023-05-16T22:42:39.900Z,100.00
2023-05-16T22:45:10.852Z,100.00
2023-05-16T22:47:40.420Z,100.00
2023-05-16T22:50:09.873Z,100.00
2023-05-16T22:52:41.232Z,100.00
2023-05-16T22:55:10.760Z,100.00
2023-05-16T22:57:41.678Z,100.00
2023-05-16T23:00:11.754Z,100.00
2023-05-16T23:02:40.390Z,100.00
2023-05-16T23:05:10.427Z,100.00
2023-05-16T23:07:40.134Z,100.00
2023-05-16T23:10:11.682Z,100.00
2023-05-16T23:12:41.557Z,100.00
2023-05-16T23:15:11.596Z,100.00
2023-05-16T23:17:40.829Z,100.00
2023-05-16T23:20:10.731Z,100.00
2023-05-16T23:22:40.154Z,100.00
2023-05-16T23:25:10.759Z,100.00
2023-05-16T23:27:41.530Z,100.00
2023-05-16T23:30:11.922Z,100.00
2023-05-16T23:32:40.447Z,100.00
2023-05-16T23:35:10.653Z,100.00
2023-05-16T23:37:39.114Z,100.00
2023-05-16T23:40:09.763Z,100.00
2023-05-16T23:42:41.345Z,100.00
2023-05-16T23:45:12.721Z,100.00
2023-05-16T23:47:41.449Z,100.00
2023-05-16T23:50:11.649Z,100.00
2023-05-16T23:52:40.235Z,100.00
2023-05-16T23:55:10.093Z,100.00
2023-05-16T23:57:41.082Z,100.00
